createdAt,value
2023-03-06T08:04:28.312Z,2644.00
2023-03-06T08:05:28.805Z,2604.00
2023-03-06T08:06:30.836Z,2464.00
2023-03-06T08:07:32.848Z,2356.00
2023-03-06T08:08:34.877Z,2472.00
2023-03-06T08:09:36.909Z,2524.00
2023-03-06T08:10:38.932Z,2608.00
2023-03-06T08:11:40.958Z,2504.00
2023-03-06T08:12:42.994Z,2196.00
2023-03-06T08:13:45.014Z,1904.00
2023-03-06T08:14:47.048Z,1856.00
2023-03-06T08:15:49.074Z,1764.00
2023-03-06T08:16:51.108Z,1700.00
2023-03-06T08:17:53.121Z,1856.00
2023-03-06T08:18:55.154Z,2104.00
2023-03-06T08:19:57.221Z,2464.00
2023-03-06T08:20:59.244Z,2964.00
2023-03-06T08:22:01.278Z,3616.00
2023-03-06T08:23:03.284Z,3920.00
2023-03-06T08:24:06.731Z,3984.00
2023-03-06T08:25:07.336Z,3728.00
2023-03-06T08:26:09.324Z,3232.00
2023-03-06T08:27:11.348Z,3064.00
2023-03-06T08:28:13.368Z,2848.00
2023-03-06T08:29:15.399Z,2684.00
2023-03-06T08:30:17.421Z,2568.00
2023-03-06T08:31:19.465Z,2612.00
2023-03-06T08:32:21.542Z,3032.00
2023-03-06T08:33:23.534Z,3404.00
2023-03-06T08:34:25.557Z,3516.00
2023-03-06T08:35:27.622Z,3472.00
2023-03-06T08:36:29.628Z,3364.00
2023-03-06T08:37:31.659Z,3272.00
2023-03-06T08:38:33.680Z,3072.00
2023-03-06T08:39:35.702Z,2972.00
2023-03-06T08:40:37.726Z,2968.00
2023-03-06T08:41:39.753Z,3004.00
2023-03-06T08:42:41.770Z,3416.00
2023-03-06T08:43:43.795Z,3848.00
2023-03-06T08:44:45.813Z,4328.00
2023-03-06T08:45:47.922Z,4788.00
2023-03-06T08:46:49.917Z,5020.00
2023-03-06T08:47:51.949Z,5316.00
2023-03-06T08:48:54.000Z,5544.00
2023-03-06T08:49:56.034Z,5536.00
2023-03-06T08:50:58.058Z,5616.00
2023-03-06T08:52:00.135Z,5440.00
2023-03-06T08:53:02.139Z,5632.00
2023-03-06T08:54:04.143Z,5920.00
2023-03-06T08:55:06.178Z,6564.00
2023-03-06T08:56:08.188Z,7112.00
2023-03-06T08:57:10.213Z,7400.00
2023-03-06T08:58:12.233Z,7604.00
2023-03-06T08:59:14.289Z,7828.00
2023-03-06T09:00:16.346Z,7764.00
2023-03-06T09:01:18.397Z,7448.00
2023-03-06T09:02:20.394Z,7184.00
2023-03-06T09:03:22.417Z,6884.00
2023-03-06T09:04:24.446Z,6872.00
2023-03-06T09:05:26.518Z,6920.00
2023-03-06T09:06:28.581Z,7192.00
2023-03-06T09:07:30.619Z,7752.00
2023-03-06T09:08:32.636Z,8436.00
2023-03-06T09:09:34.665Z,8704.00
2023-03-06T09:10:36.762Z,8300.00
2023-03-06T09:11:38.778Z,7568.00
2023-03-06T09:12:49.741Z,7108.00
2023-03-06T09:13:42.218Z,6788.00
2023-03-06T09:14:44.252Z,6472.00
2023-03-06T09:15:46.393Z,6360.00
2023-03-06T09:16:48.499Z,6316.00
2023-03-06T09:17:50.550Z,6220.00
2023-03-06T09:18:52.535Z,6036.00
2023-03-06T09:19:54.577Z,5884.00
2023-03-06T09:20:56.585Z,5824.00
2023-03-06T09:21:58.646Z,5876.00
2023-03-06T09:23:00.674Z,5980.00
2023-03-06T09:24:02.687Z,6204.00
